createdAt,value
2018-03-21T00:01:55.654Z,2.70
2018-03-21T00:04:23.862Z,2.70
2018-03-21T00:06:52.072Z,2.60
2018-03-21T00:09:20.320Z,2.60
2018-03-21T00:11:48.533Z,2.60
2018-03-21T00:14:16.739Z,2.50
2018-03-21T00:16:45.067Z,2.50
2018-03-21T00:19:13.275Z,2.60
2018-03-21T00:21:41.484Z,2.60
2018-03-21T00:24:10.484Z,2.50
2018-03-21T00:26:39.489Z,2.50
2018-03-21T00:29:07.727Z,2.40
2018-03-21T00:31:35.932Z,2.40
2018-03-21T00:34:04.173Z,2.30
2018-03-21T00:36:32.478Z,2.30
2018-03-21T00:39:01.453Z,2.40
2018-03-21T00:41:29.700Z,2.40
2018-03-21T00:43:57.926Z,2.50
2018-03-21T00:46:26.919Z,2.40
2018-03-21T00:48:56.013Z,2.40
2018-03-21T00:51:24.306Z,2.30
2018-03-21T00:53:52.520Z,2.40
2018-03-21T00:56:20.769Z,2.40
2018-03-21T00:58:48.977Z,2.50
2018-03-21T01:01:17.188Z,2.40
2018-03-21T01:03:46.195Z,2.40
2018-03-21T01:06:14.465Z,2.40
2018-03-21T01:08:42.673Z,2.40
2018-03-21T01:11:10.928Z,2.30
2018-03-21T01:13:39.206Z,2.30
2018-03-21T01:16:07.438Z,2.20
2018-03-21T01:18:35.659Z,2.20
2018-03-21T01:21:03.876Z,2.20
2018-03-21T01:23:32.120Z,2.20
2018-03-21T01:26:00.362Z,2.20
2018-03-21T01:28:29.348Z,2.20
2018-03-21T01:30:58.326Z,2.30
2018-03-21T01:33:26.559Z,2.20
2018-03-21T01:35:54.807Z,2.30
2018-03-21T01:38:23.043Z,2.10
2018-03-21T01:40:51.284Z,2.00
2018-03-21T01:43:19.498Z,2.00
2018-03-21T01:45:47.708Z,2.00
2018-03-21T01:48:16.818Z,2.10
2018-03-21T01:50:45.101Z,2.10
2018-03-21T01:53:13.320Z,2.10
2018-03-21T01:55:41.548Z,2.00
2018-03-21T01:58:09.762Z,2.00
2018-03-21T02:00:37.993Z,2.10
2018-03-21T02:03:06.262Z,2.10
2018-03-21T02:05:34.541Z,2.10
2018-03-21T02:08:02.790Z,2.10
2018-03-21T02:10:31.775Z,2.00
2018-03-21T02:13:00.010Z,2.00
2018-03-21T02:15:28.218Z,2.10
2018-03-21T02:17:56.444Z,2.00
2018-03-21T02:20:24.661Z,2.10
2018-03-21T02:22:52.914Z,2.20
2018-03-21T02:25:21.120Z,2.20
2018-03-21T02:27:49.345Z,2.20
2018-03-21T02:30:17.585Z,2.20
2018-03-21T02:32:45.839Z,2.10
2018-03-21T02:35:14.025Z,2.10
2018-03-21T02:37:42.338Z,2.10
2018-03-21T02:40:10.631Z,2.10
2018-03-21T02:42:38.867Z,2.00
2018-03-21T02:45:07.184Z,2.10
2018-03-21T02:47:35.388Z,2.10
2018-03-21T02:50:03.627Z,2.10
2018-03-21T02:52:31.835Z,2.10
2018-03-21T02:55:00.096Z,2.10
2018-03-21T02:57:28.344Z,2.20
2018-03-21T02:59:57.336Z,2.10
2018-03-21T03:02:26.344Z,2.10
2018-03-21T03:04:54.557Z,2.10
2018-03-21T03:07:22.777Z,2.00
2018-03-21T03:09:51.003Z,2.00
2018-03-21T03:12:19.215Z,2.00
2018-03-21T03:14:47.452Z,1.90
2018-03-21T03:17:15.666Z,2.00
2018-03-21T03:19:43.898Z,2.00
2018-03-21T03:22:12.129Z,2.00
2018-03-21T03:24:41.136Z,2.00
2018-03-21T03:27:09.418Z,1.90
2018-03-21T03:29:37.685Z,2.00
2018-03-21T03:32:05.920Z,2.10
2018-03-21T03:34:34.147Z,2.00
2018-03-21T03:37:02.397Z,2.10
2018-03-21T03:39:31.378Z,2.20
2018-03-21T03:41:59.594Z,2.20
2018-03-21T03:44:27.847Z,2.20
2018-03-21T03:46:56.823Z,2.20
2018-03-21T03:49:25.105Z,2.10
2018-03-21T03:51:53.293Z,2.20
2018-03-21T03:54:22.263Z,2.20
2018-03-21T03:56:50.536Z,2.10
2018-03-21T03:59:18.751Z,2.20
2018-03-21T04:01:47.030Z,2.10
2018-03-21T04:04:16.010Z,2.00
2018-03-21T04:06:45.022Z,2.00
2018-03-21T04:09:13.278Z,1.90
2018-03-21T04:11:42.288Z,2.00
2018-03-21T04:14:10.530Z,1.90
2018-03-21T04:16:38.734Z,1.90
2018-03-21T04:19:06.975Z,1.90
2018-03-21T04:21:35.190Z,1.90
2018-03-21T04:24:03.427Z,1.90
2018-03-21T04:26:31.673Z,1.90
2018-03-21T04:28:59.889Z,1.80
2018-03-21T04:31:28.133Z,1.70
2018-03-21T04:33:56.357Z,1.70
2018-03-21T04:36:25.354Z,1.70
2018-03-21T04:38:53.579Z,1.70
2018-03-21T04:41:21.805Z,1.70
2018-03-21T04:43:50.010Z,1.80
2018-03-21T04:46:18.258Z,1.80
2018-03-21T04:48:46.475Z,1.70
2018-03-21T04:51:14.696Z,1.70
2018-03-21T04:53:43.687Z,1.80
2018-03-21T04:56:12.685Z,1.80
2018-03-21T04:58:40.909Z,1.80
2018-03-21T05:01:09.118Z,1.80
2018-03-21T05:03:37.341Z,1.80
2018-03-21T05:06:05.570Z,1.80
2018-03-21T05:08:33.901Z,1.70
2018-03-21T05:11:02.133Z,1.70
2018-03-21T05:13:30.347Z,1.70
2018-03-21T05:15:58.585Z,1.70
2018-03-21T05:18:27.572Z,1.80
2018-03-21T05:20:55.781Z,1.70
2018-03-21T05:23:24.161Z,1.80
2018-03-21T05:25:52.378Z,1.80
2018-03-21T05:28:20.607Z,1.80
2018-03-21T05:30:48.854Z,1.80
2018-03-21T05:33:17.070Z,1.90
2018-03-21T05:35:45.297Z,1.80
2018-03-21T05:38:13.524Z,1.80
2018-03-21T05:40:41.754Z,1.80
2018-03-21T05:43:09.973Z,1.90
2018-03-21T05:45:38.221Z,1.90
2018-03-21T05:48:07.225Z,1.90
2018-03-21T05:50:35.516Z,1.90
2018-03-21T05:53:03.779Z,2.00
2018-03-21T05:55:31.994Z,2.00
2018-03-21T05:58:00.243Z,2.10
2018-03-21T06:00:28.606Z,2.10
2018-03-21T06:02:56.835Z,2.10
2018-03-21T06:05:25.047Z,2.10
2018-03-21T06:07:54.060Z,2.10
2018-03-21T06:10:22.350Z,2.00
2018-03-21T06:12:50.558Z,2.10
2018-03-21T06:15:18.776Z,2.10
2018-03-21T06:17:47.750Z,2.10
2018-03-21T06:20:16.759Z,2.10
2018-03-21T06:22:45.729Z,2.20
2018-03-21T06:25:13.965Z,2.10
2018-03-21T06:27:42.198Z,2.20
2018-03-21T06:30:11.218Z,2.30
2018-03-21T06:32:39.454Z,2.20
2018-03-21T06:35:07.674Z,2.30
2018-03-21T06:37:35.927Z,2.40
2018-03-21T06:40:04.917Z,2.40
2018-03-21T06:42:33.936Z,2.40
2018-03-21T06:45:02.167Z,2.40
2018-03-21T06:47:30.389Z,2.50
2018-03-21T06:49:58.672Z,2.50
2018-03-21T06:52:26.862Z,2.50
2018-03-21T06:54:55.087Z,2.50
2018-03-21T06:57:24.104Z,2.50
2018-03-21T06:59:52.337Z,2.50
2018-03-21T07:02:20.547Z,2.60
2018-03-21T07:04:48.787Z,2.60
2018-03-21T07:07:16.998Z,2.60
2018-03-21T07:09:45.248Z,2.50
2018-03-21T07:12:13.464Z,2.60
2018-03-21T07:14:53.726Z,2.60
2018-03-21T07:17:21.989Z,2.70
2018-03-21T07:19:50.210Z,2.70
2018-03-21T07:22:18.538Z,2.70
2018-03-21T07:24:46.746Z,2.80
2018-03-21T07:27:14.995Z,2.80
2018-03-21T07:29:43.235Z,2.80
2018-03-21T07:32:11.449Z,2.90
2018-03-21T07:34:39.704Z,2.90
2018-03-21T07:37:08.677Z,3.00
2018-03-21T07:39:37.767Z,3.10
2018-03-21T07:42:05.982Z,3.00
2018-03-21T07:44:34.223Z,3.10
2018-03-21T07:47:02.458Z,3.10
2018-03-21T07:49:30.691Z,3.10
2018-03-21T07:51:59.676Z,3.10
2018-03-21T07:54:27.918Z,3.10
2018-03-21T07:56:56.134Z,3.20
2018-03-21T07:59:25.275Z,3.20
2018-03-21T08:01:53.541Z,3.20
2018-03-21T08:04:21.750Z,3.20
2018-03-21T08:06:50.040Z,3.20
2018-03-21T08:09:18.227Z,3.30
2018-03-21T08:11:47.272Z,3.40
2018-03-21T08:14:15.455Z,3.30
2018-03-21T08:16:43.694Z,3.50
2018-03-21T08:19:11.936Z,3.50
2018-03-21T08:21:40.246Z,3.60
2018-03-21T08:24:08.488Z,3.60
2018-03-21T08:26:36.688Z,3.60
2018-03-21T08:29:05.745Z,3.70
2018-03-21T08:31:33.940Z,3.70
2018-03-21T08:34:02.249Z,3.70
2018-03-21T08:36:30.482Z,3.80
2018-03-21T08:38:58.698Z,3.90
2018-03-21T08:41:26.926Z,3.90
2018-03-21T08:43:56.661Z,3.90
2018-03-21T08:46:25.648Z,3.90
2018-03-21T08:48:54.658Z,3.90
2018-03-21T08:51:23.657Z,4.00
2018-03-21T08:53:52.662Z,4.00
2018-03-21T08:56:20.917Z,4.00
2018-03-21T08:58:49.132Z,4.00
2018-03-21T09:01:23.418Z,4.00
2018-03-21T09:03:51.622Z,4.10
2018-03-21T09:06:19.856Z,4.20
2018-03-21T09:08:48.224Z,4.20
2018-03-21T09:11:16.420Z,4.30
2018-03-21T09:13:45.391Z,4.20
2018-03-21T09:16:13.617Z,4.20
2018-03-21T09:18:41.890Z,4.40
2018-03-21T09:21:10.123Z,4.50
2018-03-21T09:23:38.437Z,4.50
2018-03-21T09:26:06.721Z,4.60
2018-03-21T09:28:34.873Z,4.60
2018-03-21T09:31:03.879Z,4.80
2018-03-21T09:33:32.098Z,4.70
2018-03-21T09:36:00.426Z,4.80
2018-03-21T09:38:28.667Z,4.90
2018-03-21T09:40:58.413Z,4.80
2018-03-21T09:43:26.653Z,4.80
2018-03-21T09:45:54.869Z,4.90
2018-03-21T09:48:23.158Z,5.00
2018-03-21T09:50:51.356Z,5.10
2018-03-21T09:53:19.611Z,5.10
2018-03-21T09:55:47.831Z,5.20
2018-03-21T09:58:16.062Z,5.30
2018-03-21T10:00:44.349Z,5.30
2018-03-21T10:03:12.539Z,5.40
2018-03-21T10:05:40.771Z,5.40
2018-03-21T10:08:09.766Z,5.50
2018-03-21T10:10:38.739Z,5.50
2018-03-21T10:13:07.762Z,5.60
2018-03-21T10:15:35.980Z,5.50
2018-03-21T10:18:04.210Z,5.70
2018-03-21T10:20:32.423Z,5.70
2018-03-21T10:23:00.761Z,5.70
2018-03-21T10:25:28.970Z,5.60
2018-03-21T10:27:57.239Z,5.60
2018-03-21T10:30:25.491Z,5.60
2018-03-21T10:32:53.758Z,5.60
2018-03-21T10:35:22.003Z,5.60
2018-03-21T10:37:50.215Z,5.70
2018-03-21T10:40:18.459Z,5.70
2018-03-21T10:42:46.722Z,5.60
2018-03-21T10:45:14.925Z,5.60
2018-03-21T10:47:43.905Z,5.70
2018-03-21T10:50:12.149Z,5.70
2018-03-21T10:52:40.415Z,5.80
2018-03-21T10:55:08.658Z,5.80
2018-03-21T10:57:36.974Z,5.80
2018-03-21T11:00:05.196Z,5.80
2018-03-21T11:02:40.076Z,5.80
2018-03-21T11:05:08.290Z,5.70
2018-03-21T11:07:36.607Z,5.80
2018-03-21T11:10:04.766Z,5.80
2018-03-21T11:12:33.749Z,5.90
2018-03-21T11:15:02.769Z,5.90
2018-03-21T11:17:31.012Z,5.90
2018-03-21T11:19:59.238Z,6.00
2018-03-21T11:22:27.458Z,6.00
2018-03-21T11:24:55.666Z,6.10
2018-03-21T11:27:23.906Z,6.10
2018-03-21T11:29:52.111Z,6.10
2018-03-21T11:32:20.399Z,6.20
2018-03-21T11:34:48.667Z,6.30
2018-03-21T11:37:16.902Z,6.40
2018-03-21T11:39:45.227Z,6.50
2018-03-21T11:42:13.472Z,6.60
2018-03-21T11:44:41.661Z,6.60
2018-03-21T11:47:10.729Z,6.70
2018-03-21T11:49:38.978Z,6.70
2018-03-21T11:52:07.224Z,6.80
2018-03-21T11:54:35.431Z,6.80
2018-03-21T11:57:03.674Z,6.80
2018-03-21T11:59:31.947Z,6.90
2018-03-21T12:02:00.161Z,6.80
2018-03-21T12:04:28.439Z,6.90
2018-03-21T12:06:56.697Z,6.90
2018-03-21T12:09:24.950Z,6.90
2018-03-21T12:11:53.157Z,6.90
2018-03-21T12:14:21.434Z,6.90
2018-03-21T12:16:49.749Z,6.90
2018-03-21T12:19:17.937Z,6.90
2018-03-21T12:21:46.958Z,7.00
2018-03-21T12:24:15.168Z,6.90
2018-03-21T12:26:43.393Z,7.00
2018-03-21T12:29:11.634Z,7.00
2018-03-21T12:31:39.850Z,7.00
2018-03-21T12:34:08.863Z,7.00
2018-03-21T12:36:37.095Z,6.90
2018-03-21T12:39:05.398Z,7.10
2018-03-21T12:41:34.558Z,7.30
2018-03-21T12:44:02.875Z,7.20
2018-03-21T12:46:31.086Z,7.40
2018-03-21T12:48:59.324Z,7.50
2018-03-21T12:51:27.594Z,7.50
2018-03-21T12:53:55.973Z,7.50
2018-03-21T12:56:25.021Z,7.50
2018-03-21T12:58:53.977Z,7.50
2018-03-21T13:01:22.217Z,7.50
2018-03-21T13:03:50.425Z,7.60
2018-03-21T13:06:18.681Z,7.70
2018-03-21T13:08:47.690Z,7.80
2018-03-21T13:11:15.928Z,7.70
2018-03-21T13:13:44.165Z,7.80
2018-03-21T13:16:12.412Z,7.80
2018-03-21T13:18:40.608Z,7.80
2018-03-21T13:21:08.877Z,7.80
2018-03-21T13:23:37.834Z,7.80
2018-03-21T13:26:06.865Z,7.90
2018-03-21T13:28:35.062Z,7.80
2018-03-21T13:31:03.297Z,7.90
2018-03-21T13:33:32.404Z,7.80
2018-03-21T13:36:00.672Z,7.80
2018-03-21T13:38:28.930Z,7.80
2018-03-21T13:40:57.952Z,8.00
2018-03-21T13:43:26.161Z,7.90
2018-03-21T13:45:54.404Z,8.00
2018-03-21T13:48:22.650Z,8.00
2018-03-21T13:50:50.883Z,8.00
2018-03-21T13:53:19.160Z,8.00
2018-03-21T13:55:47.371Z,8.00
2018-03-21T13:58:16.406Z,8.00
2018-03-21T14:00:44.672Z,8.00
2018-03-21T14:03:12.883Z,8.10
2018-03-21T14:05:41.233Z,8.10
2018-03-21T14:08:09.453Z,8.20
2018-03-21T14:10:37.665Z,8.30
2018-03-21T14:13:06.676Z,8.40
2018-03-21T14:15:34.914Z,8.30
2018-03-21T14:18:03.223Z,8.40
2018-03-21T14:20:31.451Z,8.40
2018-03-21T14:22:59.691Z,8.40
2018-03-21T14:25:27.916Z,8.30
2018-03-21T14:27:56.114Z,8.40
2018-03-21T14:30:25.129Z,8.50
2018-03-21T14:32:53.343Z,8.40
2018-03-21T14:35:21.582Z,8.50
2018-03-21T14:37:49.844Z,8.40
2018-03-21T14:40:18.086Z,8.40
2018-03-21T14:42:46.285Z,8.30
2018-03-21T14:45:15.378Z,8.40
2018-03-21T14:47:44.402Z,8.40
2018-03-21T14:50:12.609Z,8.40
2018-03-21T14:52:40.860Z,8.50
2018-03-21T14:55:09.082Z,8.50
2018-03-21T14:57:37.328Z,8.60
2018-03-21T15:00:05.597Z,8.60
2018-03-21T15:02:34.637Z,8.60
2018-03-21T15:05:03.690Z,8.70
2018-03-21T15:07:31.909Z,8.60
2018-03-21T15:10:00.922Z,8.70
2018-03-21T15:12:29.172Z,8.60
2018-03-21T15:14:57.411Z,8.80
2018-03-21T15:17:25.646Z,8.80
2018-03-21T15:19:54.649Z,8.70
2018-03-21T15:22:22.901Z,8.70
2018-03-21T15:24:51.898Z,8.70
2018-03-21T15:27:21.026Z,8.70
2018-03-21T15:29:49.264Z,8.70
2018-03-21T15:32:17.578Z,8.70
2018-03-21T15:34:45.808Z,8.70
2018-03-21T15:37:14.071Z,8.70
2018-03-21T15:39:42.400Z,8.80
2018-03-21T15:42:10.644Z,8.80
2018-03-21T15:44:38.866Z,8.80
2018-03-21T15:47:07.107Z,8.80
2018-03-21T15:49:35.312Z,8.80
2018-03-21T15:52:03.707Z,8.80
2018-03-21T15:54:31.930Z,8.80
2018-03-21T15:57:00.165Z,8.80
2018-03-21T15:59:28.394Z,8.80
2018-03-21T16:01:57.419Z,8.80
2018-03-21T16:04:25.667Z,8.70
2018-03-21T16:06:54.794Z,8.70
2018-03-21T16:09:23.008Z,8.70
2018-03-21T16:11:51.282Z,8.70
2018-03-21T16:14:19.527Z,8.60
2018-03-21T16:16:47.808Z,8.60
2018-03-21T16:19:16.723Z,8.60
2018-03-21T16:21:44.949Z,8.60
2018-03-21T16:24:13.159Z,8.60
2018-03-21T16:26:41.398Z,8.60
2018-03-21T16:29:09.647Z,8.50
2018-03-21T16:31:39.399Z,8.40
2018-03-21T16:34:07.593Z,8.40
2018-03-21T16:36:35.846Z,8.50
2018-03-21T16:39:04.120Z,8.40
2018-03-21T16:41:32.367Z,8.40
2018-03-21T16:44:01.354Z,8.40
2018-03-21T16:46:29.591Z,8.40
2018-03-21T16:48:57.809Z,8.40
2018-03-21T16:51:26.843Z,8.30
2018-03-21T16:53:55.089Z,8.30
2018-03-21T16:56:24.068Z,8.30
2018-03-21T16:58:52.390Z,8.30
2018-03-21T17:01:20.638Z,8.30
2018-03-21T17:03:49.620Z,8.30
2018-03-21T17:06:18.645Z,8.20
2018-03-21T17:08:46.923Z,8.20
2018-03-21T17:11:15.193Z,8.20
2018-03-21T17:13:43.417Z,8.20
2018-03-21T17:16:11.631Z,8.20
2018-03-21T17:18:40.642Z,8.10
2018-03-21T17:21:08.878Z,8.10
2018-03-21T17:23:37.878Z,8.20
2018-03-21T17:26:06.119Z,8.10
2018-03-21T17:28:34.352Z,8.20
2018-03-21T17:31:02.574Z,8.20
2018-03-21T17:33:30.837Z,8.20
2018-03-21T17:35:59.075Z,8.20
2018-03-21T17:38:27.316Z,8.20
2018-03-21T17:40:55.549Z,8.20
2018-03-21T17:43:23.778Z,8.20
2018-03-21T17:45:52.101Z,8.20
2018-03-21T17:48:20.313Z,8.20
2018-03-21T17:50:48.570Z,8.20
2018-03-21T17:53:16.790Z,8.10
2018-03-21T17:55:45.102Z,8.20
2018-03-21T17:58:13.336Z,8.20
2018-03-21T18:00:41.579Z,8.20
2018-03-21T18:03:09.793Z,8.20
2018-03-21T18:05:38.018Z,8.20
2018-03-21T18:08:06.278Z,8.10
2018-03-21T18:10:34.502Z,8.10
2018-03-21T18:13:02.743Z,8.10
2018-03-21T18:15:30.965Z,8.10
2018-03-21T18:17:59.250Z,8.10
2018-03-21T18:20:28.227Z,8.20
2018-03-21T18:22:56.445Z,8.10
2018-03-21T18:25:24.696Z,8.20
2018-03-21T18:27:52.937Z,8.20
2018-03-21T18:30:21.172Z,8.20
2018-03-21T18:32:49.476Z,8.20
2018-03-21T18:35:17.841Z,8.10
2018-03-21T18:37:46.049Z,8.10
2018-03-21T18:40:14.295Z,8.10
2018-03-21T18:42:42.521Z,8.20
2018-03-21T18:45:10.741Z,8.20
2018-03-21T18:47:38.978Z,8.10
2018-03-21T18:50:07.291Z,8.10
2018-03-21T18:52:35.544Z,8.10
2018-03-21T18:55:04.554Z,8.10
2018-03-21T18:57:32.818Z,8.10
2018-03-21T19:00:01.801Z,8.10
2018-03-21T19:02:30.022Z,8.10
2018-03-21T19:04:58.267Z,8.10
2018-03-21T19:07:26.481Z,8.10
2018-03-21T19:09:54.719Z,8.20
2018-03-21T19:12:22.947Z,8.10
2018-03-21T19:14:51.203Z,8.10
2018-03-21T19:17:19.471Z,8.00
2018-03-21T19:19:47.731Z,7.90
2018-03-21T19:22:16.008Z,7.80
2018-03-21T19:24:44.217Z,7.80
2018-03-21T19:27:12.473Z,7.80
2018-03-21T19:29:40.692Z,7.80
2018-03-21T19:32:08.946Z,7.80
2018-03-21T19:34:37.179Z,7.70
2018-03-21T19:37:05.459Z,7.70
2018-03-21T19:39:33.717Z,7.70
2018-03-21T19:42:01.909Z,7.70
2018-03-21T19:44:30.142Z,7.70
2018-03-21T19:46:58.460Z,7.70
2018-03-21T19:49:27.558Z,7.60
2018-03-21T19:51:55.771Z,7.50
2018-03-21T19:54:24.007Z,7.60
2018-03-21T19:56:53.019Z,7.60
2018-03-21T19:59:21.259Z,7.60
2018-03-21T20:01:49.474Z,7.60
2018-03-21T20:04:17.740Z,7.60
2018-03-21T20:06:46.023Z,7.60
2018-03-21T20:09:14.305Z,7.60
2018-03-21T20:11:42.574Z,7.60
2018-03-21T20:14:10.840Z,7.60
2018-03-21T20:16:39.104Z,7.60
2018-03-21T20:19:08.089Z,7.60
2018-03-21T20:21:37.105Z,7.60
2018-03-21T20:24:05.378Z,7.50
2018-03-21T20:26:33.608Z,7.60
2018-03-21T20:29:01.839Z,7.60
2018-03-21T20:31:30.051Z,7.60
2018-03-21T20:33:58.299Z,7.50
2018-03-21T20:36:26.566Z,7.50
2018-03-21T20:38:55.564Z,7.50
2018-03-21T20:41:23.799Z,7.40
2018-03-21T20:43:52.010Z,7.40
2018-03-21T20:46:20.259Z,7.30
2018-03-21T20:48:49.240Z,7.40
2018-03-21T20:51:17.470Z,7.30
2018-03-21T20:53:45.695Z,7.40
2018-03-21T20:56:15.401Z,7.40
2018-03-21T20:58:43.642Z,7.40
2018-03-21T21:01:11.853Z,7.40
2018-03-21T21:03:40.872Z,7.40
2018-03-21T21:06:09.854Z,7.40
2018-03-21T21:08:38.889Z,7.40
2018-03-21T21:11:07.130Z,7.40
2018-03-21T21:13:36.151Z,7.40
2018-03-21T21:16:04.386Z,7.30
2018-03-21T21:18:33.409Z,7.40
2018-03-21T21:21:01.682Z,7.30
2018-03-21T21:23:29.915Z,7.30
2018-03-21T21:25:58.253Z,7.30
2018-03-21T21:28:26.497Z,7.30
2018-03-21T21:30:55.528Z,7.30
2018-03-21T21:33:23.730Z,7.30
2018-03-21T21:35:51.958Z,7.30
2018-03-21T21:38:20.233Z,7.30
2018-03-21T21:40:48.460Z,7.30
2018-03-21T21:43:16.689Z,7.30
2018-03-21T21:45:44.903Z,7.30
2018-03-21T21:48:13.155Z,7.30
2018-03-21T21:50:41.422Z,7.30
2018-03-21T21:53:09.640Z,7.30
2018-03-21T21:55:38.274Z,7.20
2018-03-21T21:58:06.488Z,7.20
2018-03-21T22:00:34.750Z,7.20
2018-03-21T22:03:02.977Z,7.20
2018-03-21T22:05:31.209Z,7.20
2018-03-21T22:07:59.451Z,7.10
2018-03-21T22:10:27.763Z,7.20
2018-03-21T22:12:55.995Z,7.20
2018-03-21T22:15:24.966Z,7.30
2018-03-21T22:17:53.206Z,7.20
2018-03-21T22:20:21.419Z,7.20
2018-03-21T22:22:49.648Z,7.30
2018-03-21T22:25:17.909Z,7.30
2018-03-21T22:27:46.132Z,7.20
2018-03-21T22:30:14.350Z,7.10
2018-03-21T22:32:42.609Z,7.20
2018-03-21T22:35:12.322Z,7.10
2018-03-21T22:37:41.334Z,7.10
2018-03-21T22:40:10.304Z,7.10
2018-03-21T22:42:39.311Z,7.10
2018-03-21T22:45:08.318Z,7.20
2018-03-21T22:47:36.601Z,7.10
2018-03-21T22:50:04.835Z,7.20
2018-03-21T22:52:33.060Z,7.20
2018-03-21T22:55:01.269Z,7.20
2018-03-21T22:57:29.499Z,7.20
2018-03-21T22:59:57.721Z,7.20
2018-03-21T23:02:25.955Z,7.20
2018-03-21T23:04:54.189Z,7.20
2018-03-21T23:07:22.406Z,7.20
2018-03-21T23:09:50.615Z,7.20
2018-03-21T23:12:18.849Z,7.10
2018-03-21T23:14:47.064Z,7.20
2018-03-21T23:17:15.289Z,7.20
2018-03-21T23:19:44.398Z,7.20
2018-03-21T23:22:12.637Z,7.10
2018-03-21T23:24:41.666Z,7.10
2018-03-21T23:27:09.954Z,7.20
2018-03-21T23:29:38.209Z,7.20
2018-03-21T23:32:07.219Z,7.20
2018-03-21T23:34:35.497Z,7.20
2018-03-21T23:37:03.741Z,7.20
2018-03-21T23:39:31.945Z,7.10
2018-03-21T23:42:00.218Z,7.20
2018-03-21T23:44:29.220Z,7.10
2018-03-21T23:46:57.449Z,7.10
2018-03-21T23:49:25.669Z,7.10
2018-03-21T23:51:53.932Z,7.10
2018-03-21T23:54:22.161Z,7.10
2018-03-21T23:56:50.382Z,7.00
2018-03-21T23:59:19.386Z,7.00
